Hovedside
METAR-TAF:

METAR-TAF

Lufthavner :

Pajala, Sverige

Pajala lufthavn

breddegrad: 67-14-44N, lengdegrad: 023-04-08E, høyde over havet: 165 m

Gjeldene værobservasjon

Denne rapporten ble laget for 30 minutter siden, klokken 20:20 UTC
Vind 16 kt fra Nordvest med vindkast opp mot 30 kt
Temperatur 0°C
Luftfuktighet 64%
Trykk 999 hPa
Sikt 10 km eller mer

METAR: ESUP 262020Z AUTO 31016G30KT 9999 NCD 00/M06 Q0999

Tid: 22:50 (20:50 UTC)


TAF: fraværende

Værobservasjoner og værvarsel for over 4000 flyplasser (METAR- og TAF-rapporter).

Tilgjengelige stasjoner er representert av de røde og gule prikkene på kartet.

Hold musepekeren over prikken for å se navnet på stasjonen.

Klikk så for å se værobservasjoner og -varsler.

For å forandre kartet kan du klikke på den grønne knappen med svart kryss for å zoome inn, på den grønne knappen med strek for å zoome ut, eller på de grønne pilene for å se tilstøtende kart.


METAR-TAF: